Aérodrome :
LOGIN :

S'inscrire | Disclaimer

   EN    FR    IT 

 










Légende :    VFR   VFR Marginal   IFR   IFR Intensif   IFR Très Intensif
Visi : 
Plafond : 
>= 8 km
>= 3000ft
5 à 8 km
1000 à 3000 ft
1500m à 5 km
500 à 1000 ft
800 à 1500m
200 à 500 ft
< 800m
< 200 ft
Symboles :   Orages  Brouillard  Fortes neiges  Fortes précipitations  Vent > 20 kt
SIGMETs :   Divers  Orages  Givrage  Turbulence  Onde Orograph.  Cendres Volcan.






- Altitude de l'aérodrome : 203 ft
- Code IATA : XMJ


LFBM - Mont-De-Marsan

DERNIER METAR :
  • 060930Z AUTO 04003KT 1700 BR BKN002 OVC006 05/05 Q1024 BECMG 6000 NSW BKN005

METARs EXPIRÉS :
  • 060900Z AUTO VRB02KT 0750 0700 R27/1000U FG OVC002 04/04 Q1024 BECMG 6000 NSW BKN005
  • 060830Z AUTO 03002KT 0600 0550 R27/0800N FG OVC003 04/04 Q1024 BECMG 7000 NSW
  • 060800Z AUTO 07002KT 0450 R27/0550N FG OVC003 03/03 Q1024 BECMG 7000 NSW
  • 060730Z AUTO VRB02KT 0450 R27/0500N FG VV/// 03/02 Q1024 BECMG 7000 NSW OVC004
  • 060700Z AUTO VRB01KT 0700 0650 R27/0800N FG VV/// 02/02 Q1024 BECMG 7000 NSW OVC004

TAF TAF LFBM
Valide du 06 à 09h jusqu'au 07 à 09h UTC


060800Z 0609/0709 VRB03KT 0600 FG VV///
BECMG 0609/0611 6000 NSW BKN005
BECMG 0612/0614 CAVOK



MET'MAP, la Météo Aéronautique d'un coup d'oeil ! - Copyright ORBIFLY Décembre 2007 - Disclaimer

ORBIFLY MET'MAP TEAM :

Programmation & Développement : Alexandra Zaïnal
Sur une idée originale de : Baudouin d'Aumeries
Assistance à la programmation : Marc-Olivier Méhu
Soutien technique & logistique : Manuel Goepfert

Contact : metmap@orbifly.com




SOURCES & CREDITS :

   NOAA